Time;durP1;ratioP1;P1;durP2;ratioP2;P2;SDS_P1;SDS_P2;PMS_P1;PMS_P2;Temp;Humidity;BMP_temperature;BMP_pressure;BME280_temperature;BME280_humidity;BME280_pressure;Samples;Min_cycle;Max_cycle;Signal;HPM_P1;HPM_P2
2023/06/21 00:01:34;;;;;;;28.50;16.67;;;22.30;1.00;;;;;;5038272;28;20435;-73
2023/06/21 00:04:00;;;;;;;21.03;16.27;;;22.30;1.00;;;;;;5038055;28;20447;-73
2023/06/21 00:06:28;;;;;;;24.13;15.77;;;22.20;1.00;;;;;;5057783;28;20440;-73
2023/06/21 00:08:57;;;;;;;22.17;15.93;;;22.20;1.00;;;;;;5038275;28;20208;-73
2023/06/21 00:11:23;;;;;;;21.33;15.70;;;;;;;;;;5039856;28;20489;-73
2023/06/21 00:13:49;;;;;;;20.57;16.40;;;22.20;1.00;;;;;;5029202;28;20432;-72
2023/06/21 00:16:15;;;;;;;24.53;16.20;;;22.20;1.00;;;;;;5034815;28;20605;-73
2023/06/21 00:18:40;;;;;;;24.93;16.43;;;22.10;1.00;;;;;;5029588;28;20203;-72
2023/06/21 00:21:06;;;;;;;19.83;16.50;;;22.10;1.00;;;;;;5033728;28;20272;-72
2023/06/21 00:23:32;;;;;;;20.83;16.17;;;22.00;1.00;;;;;;5029998;28;20616;-73
2023/06/21 00:25:57;;;;;;;21.47;16.77;;;22.00;1.00;;;;;;5039093;28;20439;-72
2023/06/21 00:28:23;;;;;;;23.03;17.23;;;21.90;1.00;;;;;;5030999;28;20552;-72
2023/06/21 00:30:49;;;;;;;22.10;16.67;;;22.00;1.00;;;;;;5029235;28;20254;-73
2023/06/21 00:33:14;;;;;;;18.73;15.60;;;21.90;1.00;;;;;;5044599;28;20242;-73
2023/06/21 00:35:39;;;;;;;22.53;17.00;;;21.90;1.00;;;;;;5039375;28;20189;-72
2023/06/21 00:38:05;;;;;;;21.17;15.50;;;21.90;1.00;;;;;;5028884;28;20192;-73
2023/06/21 00:40:31;;;;;;;22.03;16.40;;;21.90;1.00;;;;;;5032220;28;20292;-73
2023/06/21 00:42:57;;;;;;;22.17;17.13;;;21.90;1.00;;;;;;5028019;28;20181;-73
2023/06/21 00:45:22;;;;;;;27.27;16.73;;;22.20;1.00;;;;;;5041288;28;20185;-73
2023/06/21 00:47:49;;;;;;;20.27;15.13;;;22.00;1.00;;;;;;5040747;28;20207;-73
2023/06/21 00:50:15;;;;;;;23.50;16.57;;;22.00;1.00;;;;;;5033788;28;20290;-73
2023/06/21 00:52:46;;;;;;;21.30;17.73;;;22.10;1.00;;;;;;5033727;28;20462;-72
2023/06/21 00:55:13;;;;;;;23.77;16.63;;;22.00;1.00;;;;;;5045419;28;20423;-73
2023/06/21 00:57:40;;;;;;;20.10;16.23;;;22.00;1.00;;;;;;5039378;28;20465;-73
2023/06/21 01:00:06;;;;;;;23.90;16.43;;;22.00;1.00;;;;;;5040669;28;20519;-72
2023/06/21 01:02:32;;;;;;;22.40;16.70;;;22.00;1.00;;;;;;5039589;28;20792;-73
2023/06/21 01:04:59;;;;;;;20.80;15.63;;;22.10;1.00;;;;;;5030924;28;21107;-73
2023/06/21 01:07:40;;;;;;;23.17;16.57;;;22.10;1.00;;;;;;5030608;28;20434;-73
2023/06/21 01:10:32;;;;;;;27.00;17.13;;;22.10;1.00;;;;;;5029215;28;20444;-73
2023/06/21 01:13:53;;;;;;;23.43;17.23;;;22.00;1.00;;;;;;5046576;28;20431;-73
2023/06/21 01:16:21;;;;;;;19.13;17.07;;;21.90;1.00;;;;;;5009569;28;20423;-74
2023/06/21 01:18:51;;;;;;;24.73;17.57;;;21.90;1.00;;;;;;5030924;28;20534;-73
2023/06/21 01:21:22;;;;;;;21.63;16.20;;;21.90;1.00;;;;;;5047617;28;20430;-73
2023/06/21 01:24:13;;;;;;;22.60;17.43;;;22.00;1.00;;;;;;5041844;28;20419;-73
2023/06/21 01:27:01;;;;;;;26.93;17.40;;;22.00;1.00;;;;;;5034356;28;20901;-73
2023/06/21 01:29:31;;;;;;;21.13;17.00;;;21.90;1.00;;;;;;5048389;28;20532;-73
2023/06/21 01:31:59;;;;;;;26.50;17.33;;;21.90;1.00;;;;;;5051042;28;20469;-73
2023/06/21 01:34:25;;;;;;;21.30;16.80;;;21.80;1.00;;;;;;5051159;28;20518;-72
2023/06/21 01:36:51;;;;;;;26.40;18.07;;;21.80;1.00;;;;;;5046456;28;20465;-73
2023/06/21 01:39:17;;;;;;;21.23;17.10;;;21.80;1.00;;;;;;5050125;28;20992;-73
2023/06/21 01:41:43;;;;;;;23.83;16.03;;;21.80;1.00;;;;;;5037228;28;20234;-73
2023/06/21 01:44:10;;;;;;;22.57;16.47;;;21.80;1.00;;;;;;5037590;28;20719;-74
2023/06/21 01:46:36;;;;;;;22.20;16.33;;;21.80;1.00;;;;;;5048916;28;20246;-73
2023/06/21 01:49:06;;;;;;;28.63;16.87;;;21.70;1.00;;;;;;5051376;28;20527;-73
2023/06/21 01:51:34;;;;;;;22.03;15.90;;;22.50;1.00;;;;;;5045615;28;20462;-73
2023/06/21 01:54:00;;;;;;;18.73;15.63;;;21.60;1.00;;;;;;5036554;28;20478;-73
2023/06/21 01:56:26;;;;;;;21.70;16.53;;;21.60;1.00;;;;;;5028921;28;20428;-73
2023/06/21 01:58:52;;;;;;;21.10;16.27;;;21.60;1.00;;;;;;5046140;28;20224;-73
2023/06/21 02:01:18;;;;;;;21.80;16.70;;;21.50;1.00;;;;;;5038924;28;20469;-73
2023/06/21 02:03:52;;;;;;;24.07;16.30;;;21.60;1.00;;;;;;5041536;28;20187;-73
2023/06/21 02:06:20;;;;;;;19.57;15.50;;;21.50;1.00;;;;;;5032584;28;20453;-73
2023/06/21 02:08:47;;;;;;;21.77;17.40;;;21.60;1.00;;;;;;5038360;28;20455;-73
2023/06/21 02:11:13;;;;;;;22.47;16.47;;;21.60;1.00;;;;;;5031606;28;20467;-73
2023/06/21 02:13:39;;;;;;;21.60;16.67;;;21.50;1.00;;;;;;5042707;28;20516;-73
2023/06/21 02:16:04;;;;;;;20.17;16.73;;;21.60;1.00;;;;;;5038628;28;20659;-73
2023/06/21 02:18:30;;;;;;;18.93;16.90;;;21.50;1.00;;;;;;5030253;28;20201;-74
2023/06/21 02:20:57;;;;;;;23.87;17.30;;;21.50;1.00;;;;;;5043028;28;20283;-73
2023/06/21 02:23:23;;;;;;;20.00;16.00;;;21.40;1.00;;;;;;5040313;28;20183;-73
2023/06/21 02:25:48;;;;;;;20.77;16.00;;;21.40;1.00;;;;;;5049671;28;20454;-73
2023/06/21 02:28:16;;;;;;;20.43;16.50;;;21.40;1.00;;;;;;5050282;28;20176;-73
2023/06/21 02:30:42;;;;;;;25.23;16.73;;;21.30;1.00;;;;;;5042532;28;20209;-73
2023/06/21 02:33:07;;;;;;;21.00;16.73;;;21.30;1.00;;;;;;5038521;28;20957;-73
2023/06/21 02:35:33;;;;;;;19.97;16.93;;;21.20;1.00;;;;;;5028984;28;20537;-73
2023/06/21 02:38:00;;;;;;;21.20;16.50;;;21.20;1.00;;;;;;5029555;28;20402;-72
2023/06/21 02:40:26;;;;;;;20.70;16.80;;;21.10;1.00;;;;;;5031165;28;20212;-73
2023/06/21 02:42:52;;;;;;;20.10;16.83;;;21.10;1.00;;;;;;5029993;28;20808;-73
2023/06/21 02:45:18;;;;;;;20.60;16.53;;;21.20;1.00;;;;;;5030621;28;20182;-73
2023/06/21 02:47:44;;;;;;;18.33;16.40;;;21.20;1.00;;;;;;5032686;28;20432;-74
2023/06/21 02:50:10;;;;;;;24.60;17.17;;;21.20;1.00;;;;;;5028577;28;20830;-73
2023/06/21 02:52:35;;;;;;;22.67;16.63;;;21.20;1.00;;;;;;5031605;28;20184;-73
2023/06/21 02:55:07;;;;;;;21.37;17.30;;;21.20;1.00;;;;;;5031688;28;20184;-73
2023/06/21 02:57:33;;;;;;;24.10;18.57;;;21.20;1.00;;;;;;5029079;28;20218;-73
2023/06/21 02:59:59;;;;;;;22.40;17.80;;;21.30;1.00;;;;;;5027206;28;20480;-73
2023/06/21 03:02:32;;;;;;;20.77;17.70;;;21.20;1.00;;;;;;5030489;28;20582;-73
2023/06/21 03:04:57;;;;;;;25.63;17.33;;;21.20;1.00;;;;;;5034029;28;20538;-72
2023/06/21 03:07:23;;;;;;;20.83;17.60;;;21.20;1.00;;;;;;5035048;28;20469;-73
2023/06/21 03:09:48;;;;;;;22.97;18.13;;;21.20;1.00;;;;;;5034113;28;20744;-73
2023/06/21 03:12:14;;;;;;;27.07;17.30;;;21.30;1.00;;;;;;5040227;28;20213;-73
2023/06/21 03:14:41;;;;;;;21.33;17.03;;;21.30;1.00;;;;;;5027363;28;20189;-72
2023/06/21 03:17:09;;;;;;;24.67;17.60;;;21.60;1.00;;;;;;5058028;28;20220;-73
2023/06/21 03:19:34;;;;;;;19.40;16.83;;;21.30;1.00;;;;;;5027584;28;20889;-73
2023/06/21 03:22:00;;;;;;;20.43;16.60;;;21.40;1.00;;;;;;5021821;28;20513;-72
2023/06/21 03:24:28;;;;;;;20.70;17.50;;;21.40;1.00;;;;;;5059712;28;20196;-73
2023/06/21 03:26:53;;;;;;;26.53;17.80;;;21.40;1.00;;;;;;5027928;28;20181;-73
2023/06/21 03:29:19;;;;;;;24.77;16.97;;;21.40;1.00;;;;;;5030915;28;20991;-73
2023/06/21 03:31:44;;;;;;;23.30;16.80;;;21.50;1.00;;;;;;5029184;28;20205;-73
2023/06/21 03:34:10;;;;;;;26.50;17.33;;;21.40;1.00;;;;;;5030712;28;20227;-73
2023/06/21 03:36:36;;;;;;;23.93;17.03;;;21.40;1.00;;;;;;5028962;28;20275;-73
2023/06/21 03:39:02;;;;;;;20.90;17.00;;;21.40;1.00;;;;;;5032442;28;20197;-73
2023/06/21 03:41:27;;;;;;;23.00;18.20;;;21.40;1.00;;;;;;5032487;28;20564;-72
2023/06/21 03:43:53;;;;;;;24.37;17.10;;;21.40;1.00;;;;;;5030315;28;20359;-74
2023/06/21 03:46:18;;;;;;;24.60;16.37;;;21.40;1.00;;;;;;5031275;28;20280;-72
2023/06/21 03:48:44;;;;;;;20.70;17.00;;;21.40;1.00;;;;;;5035551;28;20651;-73
2023/06/21 03:51:09;;;;;;;19.80;17.10;;;21.40;1.00;;;;;;5034732;28;20223;-73
2023/06/21 03:53:35;;;;;;;22.20;17.10;;;21.30;1.00;;;;;;5027620;28;20548;-73
2023/06/21 03:56:00;;;;;;;25.40;17.43;;;21.30;1.00;;;;;;5021984;28;20173;-74
2023/06/21 03:58:26;;;;;;;21.77;16.63;;;;;;;;;;5035535;28;20177;-73
2023/06/21 04:00:52;;;;;;;27.57;16.93;;;21.30;1.00;;;;;;5034541;28;20195;-73
2023/06/21 04:03:17;;;;;;;27.23;16.80;;;21.30;1.00;;;;;;5028915;28;20353;-73
2023/06/21 04:05:43;;;;;;;22.23;15.77;;;21.40;1.00;;;;;;5039063;28;20212;-73
2023/06/21 04:08:08;;;;;;;19.23;14.93;;;21.60;1.00;;;;;;5036210;28;20191;-72
2023/06/21 04:10:34;;;;;;;17.37;15.13;;;21.60;1.00;;;;;;5037903;28;20224;-73
2023/06/21 04:12:59;;;;;;;19.03;14.60;;;22.10;1.00;;;;;;5041727;28;20555;-73
2023/06/21 04:15:26;;;;;;;24.33;14.93;;;21.90;1.00;;;;;;5035149;28;20219;-73
2023/06/21 04:17:52;;;;;;;26.50;15.47;;;22.10;1.00;;;;;;5038740;28;20180;-73
2023/06/21 04:20:17;;;;;;;20.10;15.10;;;22.20;1.00;;;;;;5040370;28;20459;-74
2023/06/21 04:22:45;;;;;;;25.93;14.73;;;22.30;1.00;;;;;;5043985;28;20192;-73
2023/06/21 04:25:11;;;;;;;22.40;15.80;;;23.30;1.00;;;;;;5028661;28;20188;-73
2023/06/21 04:27:39;;;;;;;17.67;14.97;;;22.20;1.00;;;;;;5024440;28;20523;-73
2023/06/21 04:30:09;;;;;;;18.90;14.57;;;22.20;1.00;;;;;;5026206;28;20196;-72
2023/06/21 04:32:34;;;;;;;20.30;14.90;;;22.20;1.00;;;;;;5025381;28;20968;-74
2023/06/21 04:35:00;;;;;;;19.50;14.43;;;22.30;1.00;;;;;;5035115;28;20439;-72
2023/06/21 04:37:26;;;;;;;19.17;13.60;;;22.30;1.00;;;;;;5030026;28;20177;-73
2023/06/21 04:39:55;;;;;;;20.67;13.30;;;22.20;1.00;;;;;;5041324;28;20197;-73
2023/06/21 04:42:20;;;;;;;15.50;13.57;;;22.30;1.00;;;;;;5036342;28;20187;-73
2023/06/21 04:44:49;;;;;;;16.20;13.33;;;22.10;1.00;;;;;;5041493;28;20443;-73
2023/06/21 04:47:15;;;;;;;15.27;13.40;;;22.10;1.00;;;;;;5037690;28;20564;-73
2023/06/21 04:49:41;;;;;;;20.40;13.50;;;;;;;;;;5041932;28;20494;-74
2023/06/21 04:52:07;;;;;;;15.90;12.80;;;21.90;1.00;;;;;;5037720;28;20455;-73
2023/06/21 04:54:33;;;;;;;16.40;13.80;;;21.90;1.00;;;;;;5032685;28;20188;-74
2023/06/21 04:56:58;;;;;;;18.00;14.53;;;21.90;1.00;;;;;;5021110;28;20177;-73
2023/06/21 04:59:24;;;;;;;22.63;14.30;;;21.90;1.00;;;;;;5026170;28;20513;-72
2023/06/21 05:01:49;;;;;;;16.40;12.90;;;22.00;1.00;;;;;;5021152;28;20197;-73
2023/06/21 05:04:15;;;;;;;21.13;15.00;;;21.90;1.00;;;;;;5031403;28;20448;-73
2023/06/21 05:06:41;;;;;;;18.63;14.10;;;21.60;1.00;;;;;;5030828;28;20747;-73
2023/06/21 05:09:08;;;;;;;19.00;13.83;;;;;;;;;;5030660;28;20715;-73
2023/06/21 05:11:35;;;;;;;19.77;14.70;;;21.40;1.00;;;;;;5030598;28;20463;-74
2023/06/21 05:14:00;;;;;;;23.10;15.20;;;21.50;1.00;;;;;;5033432;28;20442;-74
2023/06/21 05:16:25;;;;;;;18.87;12.87;;;21.60;1.00;;;;;;5031296;28;20515;-73
2023/06/21 05:18:51;;;;;;;14.07;11.40;;;21.50;1.00;;;;;;5036783;28;20718;-73
2023/06/21 05:21:17;;;;;;;15.87;11.80;;;21.40;1.00;;;;;;5033881;28;20189;-73
2023/06/21 05:23:42;;;;;;;15.30;12.50;;;21.10;1.00;;;;;;5031384;28;20181;-72
2023/06/21 05:26:08;;;;;;;15.00;11.73;;;21.10;1.00;;;;;;5030702;28;20248;-72
2023/06/21 05:28:33;;;;;;;19.27;12.20;;;21.20;1.00;;;;;;5034705;28;20203;-73
2023/06/21 05:30:59;;;;;;;16.80;12.07;;;21.20;1.00;;;;;;5032623;28;20285;-74
2023/06/21 05:33:24;;;;;;;15.30;12.30;;;21.20;1.00;;;;;;5044068;28;20182;-73
2023/06/21 05:35:50;;;;;;;16.47;11.93;;;21.30;1.00;;;;;;5035860;28;20177;-73
2023/06/21 05:38:15;;;;;;;14.83;11.80;;;21.30;1.00;;;;;;5031588;28;20197;-73
2023/06/21 05:40:41;;;;;;;14.17;11.67;;;21.20;1.00;;;;;;5035413;28;20566;-73
2023/06/21 05:43:06;;;;;;;13.23;10.80;;;21.20;1.00;;;;;;5039470;28;20181;-74
2023/06/21 05:45:34;;;;;;;12.83;10.37;;;21.10;1.00;;;;;;5034051;28;20185;-73
2023/06/21 05:48:00;;;;;;;16.33;11.20;;;21.20;1.00;;;;;;5041678;28;20189;-74
2023/06/21 05:50:30;;;;;;;13.97;10.30;;;21.30;1.00;;;;;;5028795;28;20525;-74
2023/06/21 05:52:58;;;;;;;14.00;10.10;;;21.20;1.00;;;;;;5031025;28;20958;-73
2023/06/21 05:55:24;;;;;;;17.33;11.27;;;21.30;1.00;;;;;;5027722;28;20582;-73
2023/06/21 05:57:50;;;;;;;17.23;10.80;;;21.50;1.00;;;;;;5032291;28;20494;-72
2023/06/21 06:00:16;;;;;;;16.73;11.50;;;21.50;1.00;;;;;;5034270;28;20281;-72
2023/06/21 06:02:42;;;;;;;18.33;11.33;;;21.50;1.00;;;;;;5031966;28;20269;-73
2023/06/21 06:05:08;;;;;;;13.57;10.00;;;21.70;1.00;;;;;;5033034;28;20950;-73
2023/06/21 06:07:34;;;;;;;16.53;10.07;;;21.80;1.00;;;;;;5032392;28;20181;-73
2023/06/21 06:09:59;;;;;;;14.17;9.90;;;22.10;1.00;;;;;;5035862;28;20469;-73
2023/06/21 06:12:25;;;;;;;17.53;11.13;;;22.20;1.00;;;;;;5036669;28;20227;-73
2023/06/21 06:14:51;;;;;;;11.97;10.07;;;22.30;1.00;;;;;;5029109;28;20203;-73
2023/06/21 06:17:16;;;;;;;14.87;10.57;;;22.50;1.00;;;;;;5033157;28;20181;-73
2023/06/21 06:19:42;;;;;;;14.03;9.70;;;22.70;1.00;;;;;;5034223;28;20193;-72
2023/06/21 06:22:08;;;;;;;12.30;9.47;;;22.80;1.00;;;;;;5034262;28;20192;-73
2023/06/21 06:24:33;;;;;;;11.90;9.73;;;22.80;1.00;;;;;;5024489;28;20271;-73
2023/06/21 06:26:59;;;;;;;12.43;10.17;;;22.80;1.00;;;;;;5029371;28;20224;-72
2023/06/21 06:29:24;;;;;;;14.50;10.20;;;22.80;1.00;;;;;;5028644;28;20201;-72
2023/06/21 06:31:51;;;;;;;12.37;9.93;;;22.80;1.00;;;;;;5036064;28;20635;-73
2023/06/21 06:34:17;;;;;;;14.90;10.37;;;22.90;1.00;;;;;;5037327;28;20193;-72
2023/06/21 06:36:42;;;;;;;12.30;9.90;;;22.90;1.00;;;;;;5028898;28;20481;-73
2023/06/21 06:39:09;;;;;;;14.30;9.67;;;23.20;1.00;;;;;;5036360;28;20219;-73
2023/06/21 06:41:34;;;;;;;13.13;10.10;;;23.20;1.00;;;;;;5034581;28;20184;-74
2023/06/21 06:44:00;;;;;;;13.70;9.83;;;23.20;1.00;;;;;;5034565;28;21006;-72
2023/06/21 06:46:26;;;;;;;13.03;10.40;;;;;;;;;;5028421;28;20182;-72
2023/06/21 06:48:51;;;;;;;12.38;10.20;;;21.90;1.00;;;;;;5034155;28;20584;-75
2023/06/21 06:51:17;;;;;;;13.40;10.50;;;23.20;1.00;;;;;;5033758;28;20208;-73
2023/06/21 06:53:42;;;;;;;15.20;10.80;;;23.20;1.00;;;;;;5034349;28;20208;-74
2023/06/21 06:56:08;;;;;;;15.00;11.23;;;23.60;1.00;;;;;;5028523;28;20192;-73
2023/06/21 06:58:35;;;;;;;15.00;10.20;;;23.80;1.00;;;;;;5030609;28;20209;-72
2023/06/21 07:01:02;;;;;;;17.47;10.93;;;;;;;;;;5035790;28;20275;-73
2023/06/21 07:03:28;;;;;;;11.50;9.30;;;24.10;1.00;;;;;;5031910;28;20423;-73
2023/06/21 07:05:54;;;;;;;15.87;10.27;;;24.70;1.00;;;;;;5029484;28;21007;-74
2023/06/21 07:08:19;;;;;;;15.70;10.10;;;24.40;1.00;;;;;;5024568;28;20671;-74
2023/06/21 07:10:45;;;;;;;12.10;9.20;;;24.50;1.00;;;;;;5030069;28;20220;-73
2023/06/21 07:13:10;;;;;;;12.50;9.60;;;24.80;1.00;;;;;;5031086;28;20216;-73
2023/06/21 07:15:36;;;;;;;15.03;10.70;;;25.00;1.00;;;;;;5030634;28;20240;-73
2023/06/21 07:18:01;;;;;;;16.00;9.87;;;24.80;1.00;;;;;;5031725;28;20189;-73
2023/06/21 07:20:27;;;;;;;12.50;9.40;;;24.80;1.00;;;;;;5040610;28;20208;-74
2023/06/21 07:22:53;;;;;;;12.43;9.13;;;25.20;1.00;;;;;;5028615;28;20185;-73
2023/06/21 07:25:18;;;;;;;11.60;8.87;;;25.20;1.00;;;;;;5038429;28;20185;-74
2023/06/21 07:27:44;;;;;;;13.73;8.93;;;;;;;;;;5030079;28;20192;-74
2023/06/21 07:30:10;;;;;;;13.63;9.20;;;25.90;1.00;;;;;;5030018;28;20209;-74
2023/06/21 07:32:36;;;;;;;10.53;9.43;;;26.00;1.00;;;;;;5028746;28;20185;-74
2023/06/21 07:35:03;;;;;;;11.60;8.50;;;26.00;1.00;;;;;;5029971;28;20189;-74
2023/06/21 07:37:30;;;;;;;10.70;8.10;;;;;;;;;;5030095;28;20268;-74
2023/06/21 07:39:57;;;;;;;10.70;8.47;;;;;;;;;;5028517;28;21061;-74
2023/06/21 07:42:23;;;;;;;10.27;8.40;;;;;;;;;;5029936;28;20478;-73
2023/06/21 07:44:50;;;;;;;10.53;8.50;;;26.10;1.00;;;;;;5029886;28;20578;-74
2023/06/21 07:47:17;;;;;;;11.80;8.37;;;;;;;;;;5030228;28;20435;-74
2023/06/21 07:49:42;;;;;;;10.33;8.80;;;26.70;1.00;;;;;;5030058;28;20896;-74
2023/06/21 07:52:09;;;;;;;10.50;8.90;;;26.70;1.00;;;;;;5029878;28;20290;-74
2023/06/21 07:54:34;;;;;;;11.97;8.80;;;26.40;1.00;;;;;;5030217;28;20789;-74
2023/06/21 07:57:00;;;;;;;12.70;8.40;;;26.40;1.00;;;;;;5029021;28;20488;-74
2023/06/21 07:59:25;;;;;;;12.40;8.70;;;26.00;1.00;;;;;;5038258;28;20590;-74
2023/06/21 08:01:51;;;;;;;10.40;8.13;;;26.30;1.00;;;;;;5029073;28;20196;-74
2023/06/21 08:04:16;;;;;;;11.17;8.03;;;26.00;1.00;;;;;;5030192;28;20192;-74
2023/06/21 08:06:42;;;;;;;10.23;8.40;;;;;;;;;;5037861;28;20185;-74
2023/06/21 08:09:08;;;;;;;10.80;8.57;;;;;;;;;;5029735;28;20701;-74
2023/06/21 08:11:34;;;;;;;9.30;7.90;;;26.50;1.00;;;;;;5036261;28;20671;-73
2023/06/21 08:13:59;;;;;;;8.90;7.40;;;26.70;1.00;;;;;;5039094;28;20196;-74
2023/06/21 08:16:25;;;;;;;9.87;7.40;;;27.10;1.00;;;;;;5029327;28;20193;-75
2023/06/21 08:18:51;;;;;;;11.13;7.67;;;26.80;1.00;;;;;;5029356;28;20329;-74
2023/06/21 08:21:17;;;;;;;8.37;6.77;;;;;;;;;;5029836;28;20196;-74
2023/06/21 08:23:43;;;;;;;11.60;6.93;;;27.40;1.00;;;;;;5029522;28;20424;-73
2023/06/21 08:26:08;;;;;;;10.37;7.57;;;27.30;1.00;;;;;;5028789;28;20272;-74
2023/06/21 08:28:34;;;;;;;10.83;7.97;;;27.40;1.00;;;;;;5029769;28;20619;-74
2023/06/21 08:30:59;;;;;;;12.53;8.30;;;27.40;1.00;;;;;;5028695;28;20495;-75
2023/06/21 08:33:25;;;;;;;10.53;8.17;;;27.90;1.00;;;;;;5029662;28;20185;-74
2023/06/21 08:35:50;;;;;;;9.93;8.17;;;28.10;1.00;;;;;;5040532;28;20212;-74
2023/06/21 08:38:16;;;;;;;14.87;8.80;;;28.40;1.00;;;;;;5033689;28;20279;-74
2023/06/21 08:40:42;;;;;;;10.90;8.40;;;27.80;1.00;;;;;;5033219;28;20291;-74
2023/06/21 08:43:08;;;;;;;12.20;8.53;;;27.80;1.00;;;;;;5041438;28;20247;-74
2023/06/21 08:45:33;;;;;;;9.77;8.30;;;27.50;1.00;;;;;;5038422;28;20188;-74
2023/06/21 08:48:03;;;;;;;11.97;8.33;;;28.10;1.00;;;;;;5035033;28;20193;-73
2023/06/21 08:50:29;;;;;;;12.63;8.70;;;28.50;1.00;;;;;;5036699;28;20269;-75
2023/06/21 08:52:57;;;;;;;11.63;8.53;;;27.40;1.00;;;;;;5041393;28;20193;-74
2023/06/21 08:55:24;;;;;;;9.80;8.43;;;27.00;1.00;;;;;;5033052;28;20239;-74
2023/06/21 08:57:56;;;;;;;11.60;8.43;;;26.50;1.00;;;;;;5031076;28;20189;-74
2023/06/21 09:00:26;;;;;;;10.03;8.30;;;26.30;1.00;;;;;;5033225;28;20229;-74
2023/06/21 09:03:05;;;;;;;8.90;7.77;;;26.30;1.00;;;;;;5031398;28;20466;-74
2023/06/21 09:06:00;;;;;;;10.07;8.20;;;26.90;1.00;;;;;;5029007;28;20600;-74
2023/06/21 09:08:26;;;;;;;9.03;8.10;;;27.70;1.00;;;;;;5026691;28;20609;-75
2023/06/21 09:10:52;;;;;;;12.80;8.70;;;28.30;1.00;;;;;;5031064;28;20589;-75
2023/06/21 09:13:19;;;;;;;11.67;8.37;;;29.20;1.00;;;;;;5033110;28;20543;-74
2023/06/21 09:15:47;;;;;;;16.20;8.07;;;28.80;1.00;;;;;;5031625;28;20555;-74
2023/06/21 09:18:13;;;;;;;12.53;8.40;;;29.20;1.00;;;;;;5031368;28;20264;-75
2023/06/21 09:20:39;;;;;;;10.67;8.87;;;29.80;1.00;;;;;;5029625;28;20352;-74
2023/06/21 09:23:05;;;;;;;12.33;8.37;;;29.60;1.00;;;;;;5041519;28;20201;-74
2023/06/21 09:25:31;;;;;;;11.17;8.37;;;29.30;1.00;;;;;;5032671;28;20189;-74
2023/06/21 09:27:57;;;;;;;13.20;8.00;;;28.90;1.00;;;;;;5041309;28;20188;-74
2023/06/21 09:30:23;;;;;;;11.60;8.30;;;30.10;1.00;;;;;;5037025;28;20725;-74
2023/06/21 09:32:49;;;;;;;11.83;7.67;;;28.70;1.00;;;;;;5035062;28;20697;-75
2023/06/21 09:35:15;;;;;;;8.70;7.50;;;28.50;1.00;;;;;;5033306;28;20239;-76
2023/06/21 09:37:41;;;;;;;11.03;8.43;;;28.30;1.00;;;;;;5032870;28;20718;-74
2023/06/21 09:40:07;;;;;;;9.20;7.90;;;28.30;1.00;;;;;;5039394;28;20231;-74
2023/06/21 09:42:44;;;;;;;9.00;7.53;;;28.50;1.00;;;;;;5032524;28;20252;-74
2023/06/21 09:45:10;;;;;;;10.63;7.47;;;28.50;1.00;;;;;;5038868;28;20185;-74
2023/06/21 09:47:36;;;;;;;10.60;7.60;;;28.30;1.00;;;;;;5032519;28;20224;-74
2023/06/21 09:50:08;;;;;;;10.53;7.50;;;28.10;1.00;;;;;;5039953;28;20628;-74
2023/06/21 09:52:34;;;;;;;9.27;7.47;;;28.10;1.00;;;;;;5032076;28;20208;-74
2023/06/21 09:55:01;;;;;;;14.13;7.07;;;28.00;1.00;;;;;;5031925;28;20268;-76
2023/06/21 09:57:30;;;;;;;9.67;7.00;;;28.10;1.00;;;;;;5022853;28;20188;-74
2023/06/21 09:59:59;;;;;;;9.77;7.13;;;27.80;1.00;;;;;;5032701;28;20213;-75
2023/06/21 10:02:24;;;;;;;9.30;7.90;;;27.60;1.00;;;;;;5037826;28;20659;-75
2023/06/21 10:04:54;;;;;;;8.37;7.40;;;27.40;1.00;;;;;;5032224;28;20189;-74
2023/06/21 10:07:20;;;;;;;9.40;7.80;;;27.30;1.00;;;;;;5039528;28;20196;-74
2023/06/21 10:09:47;;;;;;;11.00;8.40;;;27.40;1.00;;;;;;5032259;28;20254;-74
2023/06/21 10:12:14;;;;;;;10.50;7.43;;;27.40;1.00;;;;;;5042908;28;20291;-75
2023/06/21 10:14:40;;;;;;;8.43;7.03;;;27.50;1.00;;;;;;5037270;28;20664;-74
2023/06/21 10:17:07;;;;;;;9.53;6.77;;;27.60;1.00;;;;;;5031777;28;20200;-74
2023/06/21 10:19:33;;;;;;;8.13;6.50;;;27.80;1.00;;;;;;5031863;28;20747;-74
2023/06/21 10:22:04;;;;;;;9.07;7.13;;;27.90;1.00;;;;;;5031173;28;20339;-74
2023/06/21 10:24:36;;;;;;;8.70;7.10;;;27.80;1.00;;;;;;5031965;28;20211;-75
2023/06/21 10:27:06;;;;;;;10.13;7.60;;;27.80;1.00;;;;;;5039350;28;20177;-75
2023/06/21 10:29:33;;;;;;;10.70;7.13;;;27.80;1.00;;;;;;5031460;28;20579;-73
2023/06/21 10:32:04;;;;;;;12.27;7.60;;;28.10;1.00;;;;;;5030876;28;20236;-74
2023/06/21 10:34:43;;;;;;;9.03;7.03;;;28.10;1.00;;;;;;5032014;28;20239;-74
2023/06/21 10:37:32;;;;;;;9.30;7.30;;;28.20;1.00;;;;;;5031412;28;20267;-74
2023/06/21 10:40:07;;;;;;;11.07;7.60;;;28.20;1.00;;;;;;5031462;28;20202;-74
2023/06/21 10:42:33;;;;;;;9.03;7.10;;;28.40;1.00;;;;;;5036788;28;20253;-74
2023/06/21 10:44:59;;;;;;;12.70;9.93;;;29.00;1.00;;;;;;5042735;28;20197;-74
2023/06/21 10:47:26;;;;;;;14.23;7.03;;;28.90;1.00;;;;;;5041840;28;20187;-74
2023/06/21 10:50:01;;;;;;;7.57;6.43;;;29.30;1.00;;;;;;5035022;28;20208;-74
2023/06/21 10:52:29;;;;;;;11.70;7.10;;;29.80;1.00;;;;;;5031191;28;20292;-74
2023/06/21 10:55:00;;;;;;;10.43;7.00;;;30.00;1.00;;;;;;5030691;28;20196;-74
2023/06/21 10:57:27;;;;;;;7.60;6.43;;;30.90;1.00;;;;;;5029875;28;20197;-74
2023/06/21 10:59:59;;;;;;;9.88;7.30;;;30.70;1.00;;;;;;5030930;28;20293;-75
2023/06/21 11:02:25;;;;;;;9.10;6.90;;;30.60;1.00;;;;;;5039297;28;20276;-74
2023/06/21 11:05:19;;;;;;;8.05;6.97;;;31.00;1.00;;;;;;5029920;28;20231;-74
2023/06/21 11:07:56;;;;;;;9.38;7.10;;;29.90;1.00;;;;;;5025096;28;20735;-74
2023/06/21 11:10:41;;;;;;;8.68;6.88;;;29.80;1.00;;;;;;5030724;28;20698;-74
2023/06/21 11:13:07;;;;;;;8.87;6.80;;;29.40;1.00;;;;;;5032389;28;20212;-74
2023/06/21 11:15:40;;;;;;;11.93;7.80;;;29.30;1.00;;;;;;5037215;28;20205;-74
2023/06/21 11:18:07;;;;;;;10.13;6.90;;;29.40;1.00;;;;;;5030714;28;20203;-74
2023/06/21 11:20:49;;;;;;;8.87;7.80;;;29.50;1.00;;;;;;5030468;28;20681;-74
2023/06/21 11:23:22;;;;;;;9.35;8.35;;;29.60;1.00;;;;;;5030697;28;20481;-74
2023/06/21 11:26:03;;;;;;;9.50;7.70;;;29.10;1.00;;;;;;5030327;28;20517;-74
2023/06/21 11:28:33;;;;;;;12.57;8.00;;;28.90;1.00;;;;;;5038843;28;20189;-75
2023/06/21 11:31:01;;;;;;;9.90;8.33;;;29.40;1.00;;;;;;5038282;28;20233;-74
2023/06/21 11:33:29;;;;;;;12.43;8.60;;;29.50;1.00;;;;;;5030598;28;20170;-74
2023/06/21 11:36:05;;;;;;;8.90;7.67;;;29.90;1.00;;;;;;5030329;28;20173;-75
2023/06/21 11:38:31;;;;;;;8.88;7.90;;;30.20;1.00;;;;;;5037435;28;20184;-74
2023/06/21 11:40:58;;;;;;;8.75;7.63;;;29.80;1.00;;;;;;5038095;28;20310;-75
2023/06/21 11:43:23;;;;;;;10.65;8.35;;;29.90;1.00;;;;;;5030645;28;20181;-75
2023/06/21 11:45:57;;;;;;;10.32;8.00;;;30.40;1.00;;;;;;5038443;28;20671;-74
2023/06/21 11:48:31;;;;;;;9.27;7.93;;;31.40;1.00;;;;;;5030574;28;20178;-74
2023/06/21 11:51:08;;;;;;;8.05;7.10;;;32.60;1.00;;;;;;5046908;28;20303;-75
2023/06/21 11:53:41;;;;;;;9.60;8.02;;;33.00;1.00;;;;;;5024249;28;20716;-74
2023/06/21 11:56:16;;;;;;;8.38;7.20;;;33.40;1.00;;;;;;5029597;28;20185;-74
2023/06/21 11:58:41;;;;;;;10.10;8.05;;;34.20;1.00;;;;;;5030239;28;20188;-74
2023/06/21 12:01:07;;;;;;;9.25;7.68;;;;;;;;;;5029966;28;20246;-74
2023/06/21 12:03:33;;;;;;;9.23;7.13;;;34.80;1.00;;;;;;5046208;28;20185;-74
2023/06/21 12:06:01;;;;;;;8.63;7.72;;;36.70;1.00;;;;;;5030037;28;20189;-75
2023/06/21 12:08:31;;;;;;;11.38;7.88;;;36.70;1.00;;;;;;5029128;28;20644;-75
2023/06/21 12:11:01;;;;;;;8.50;7.53;;;38.30;1.00;;;;;;5030595;28;20205;-75
2023/06/21 12:13:27;;;;;;;9.48;7.03;;;38.20;1.00;;;;;;5022865;28;20177;-75
2023/06/21 12:15:58;;;;;;;12.15;7.45;;;38.90;1.00;;;;;;5030351;28;20738;-75
2023/06/21 12:18:24;;;;;;;7.15;6.22;;;40.50;1.00;;;;;;5030596;28;20208;-75
2023/06/21 12:20:53;;;;;;;7.88;6.68;;;40.50;1.00;;;;;;5030644;28;20219;-76
2023/06/21 12:23:20;;;;;;;7.38;6.07;;;41.60;1.00;;;;;;5030993;28;20217;-75
2023/06/21 12:25:48;;;;;;;7.50;6.80;;;42.10;1.00;;;;;;5031063;28;20181;-77
2023/06/21 12:28:14;;;;;;;9.02;6.82;;;40.80;1.00;;;;;;5038491;28;20551;-76
2023/06/21 12:30:58;;;;;;;9.52;7.50;;;40.10;1.00;;;;;;5030856;28;20208;-77
2023/06/21 12:33:26;;;;;;;9.95;7.97;;;39.00;1.00;;;;;;5029085;28;20202;-75
2023/06/21 12:35:52;;;;;;;9.48;7.35;;;38.70;1.00;;;;;;5031012;28;20215;-75
2023/06/21 12:38:19;;;;;;;8.98;7.32;;;40.30;1.00;;;;;;5030637;28;20246;-75
2023/06/21 12:40:57;;;;;;;7.45;6.18;;;41.20;1.00;;;;;;5030376;28;20208;-76
2023/06/21 12:43:40;;;;;;;10.38;6.80;;;41.80;1.00;;;;;;5030826;28;20184;-75
2023/06/21 12:46:06;;;;;;;9.70;7.00;;;42.20;1.00;;;;;;5029329;28;20212;-75
2023/06/21 12:48:33;;;;;;;8.00;7.20;;;39.90;1.00;;;;;;5039679;28;20258;-75
2023/06/21 12:50:59;;;;;;;7.95;6.47;;;39.80;1.00;;;;;;5030524;28;20216;-75